Spanish Fork, Utah
Current Conditions -  °F | °C
As of 2:35 AM on Saturday 20 Dec 2014 (Local Time) from KPVU Reporting Station
Scattered Clouds Scattered Clouds  
Wind Chill: 32°   Ceiling: Unl
Heat Index: 36°   Visibility: 10mi
Dew Point: 32°   Wind: 5mph
Humidity: 87%   Direction: 50°NE
Pressure: 30.15"   Gusts: NA
Location:  40.11°N, 111.65°W
Report Text: KPVU 200935Z AUTO 05004KT 10SM SCT027 02/00 A3015 RMK AO1
Loading
Personal Weather Stations






























Interactive Weather Map New forecast layout! Learn more

10-Day Weather Forecast

Advertisements
Track Severe Weather on mobile